Crater Lake Natl Park, Oregon
Current Conditions -  °F | °C
As of 8:53 PM on Monday 22 Dec 2014 (Local Time) from KMFR Reporting Station
Overcast Overcast  
Wind Chill: 13°   Ceiling: 4400
Heat Index: 13°   Visibility: 10mi
Dew Point: 11°   Wind: 0mph
Humidity: 89%   Direction: NA
Pressure: 30.33"   Gusts: NA
Location:  42.82°N, 122.13°W
Report Text: KMFR 230453Z AUTO 00000KT 10SM SCT034 OVC044 13/11 A3033 RMK AO2 SLP269 T01280111
Loading
Personal Weather Stations






























Interactive Weather Map New forecast layout! Learn more

10-Day Weather Forecast

Advertisements
Track Severe Weather on mobile